Palchem 1 — 9HA2097 — position and weather

sailwx.info

Track history (hours):
 
Tides and Currents Weather Stations Pressure Air Temp Water Temp Dewpoint Dewpoint Depression Visibility Wind Speed Wind Dir Waves Ship Positions

Palchem 1

Last reported at 2015-Mar-28 15:31 UTC. Time now 2015-Mar-30 20:02 UTC.
Position N 36°35' E 026°37'.

Length 143 m; draft 9.2 m.

Type: Ship (hazmat cat B). MMSI: 249955000.

Date/timePositionNaut miles runAvg speedWind from/ knotsBaromVisibWave heightAir tempDewpointWater temp
2015-Mar-28 15:31N 36°35' E 026°37'2411.8
2015-Mar-28 13:30N 36°53' E 026°17'3411.4
2015-Mar-28 10:33N 37°21' E 025°54'1110.8
2015-Mar-28 09:30N 37°32' E 025°49'1211.1
2015-Mar-28 08:24N 37°44' E 025°48'241 6.0
2015-Mar-26 16:32N 40°58' E 028°53'0 0.0
2015-Mar-26 15:32N 40°58' E 028°53'0 0.0
2015-Mar-26 14:32N 40°58' E 028°53'0 0.0
2015-Mar-26 13:14N 40°58' E 028°53'0 0.0
2015-Mar-26 09:22N 40°58' E 028°53'0 0.0
2015-Mar-26 08:04N 40°58' E 028°53'0 0.0
2015-Mar-26 07:28N 40°58' E 028°53'0 0.0
2015-Mar-26 06:28N 40°58' E 028°53'0 0.0
2015-Mar-26 05:14N 40°58' E 028°53'0 0.0
2015-Mar-26 04:29N 40°58' E 028°53'0 0.0
2015-Mar-26 03:30N 40°58' E 028°53'0 0.0
2015-Mar-26 02:33N 40°58' E 028°53'0 0.0
2015-Mar-26 01:28N 40°58' E 028°53'0 0.1
2015-Mar-26 00:32N 40°58' E 028°53'0 0.0
2015-Mar-25 23:26N 40°58' E 028°53'0 0.0
2015-Mar-25 22:14N 40°58' E 028°53'0 0.0
2015-Mar-25 21:33N 40°58' E 028°53'6 6.0
2015-Mar-25 20:32N 41°01' E 028°60'1411.1
2015-Mar-25 19:14N 41°14' E 029°08'4 5.5
2015-Mar-25 18:33N 41°17' E 029°05'5 4.4
2015-Mar-25 17:31N 41°17' E 028°59'0 0.0
2015-Mar-25 16:31N 41°17' E 028°59'0 0.0
2015-Mar-25 15:32N 41°17' E 028°59'0 0.0
2015-Mar-25 14:28N 41°17' E 028°59'0 0.0
2015-Mar-25 13:33N 41°17' E 028°59'9 7.0
2015-Mar-25 12:16N 41°26' E 028°59'1 0.8
2015-Mar-25 11:33N 41°26' E 028°59'1 0.7
2015-Mar-25 10:33N 41°27' E 028°58'1 0.7
2015-Mar-25 09:33N 41°27' E 028°58'1 0.8
2015-Mar-25 08:24N 41°28' E 028°57'0 0.5
2015-Mar-25 07:32N 41°28' E 028°56'3 2.6
2015-Mar-25 06:16N 41°29' E 029°01'327 8.4
2015-Mar-23 15:31N 46°35' E 031°38'10 9.9
2015-Mar-23 14:32N 46°37' E 031°52'8 8.1
2015-Mar-23 13:33N 46°45' E 031°54'9 8.9
2015-Mar-23 12:33N 46°53' E 031°59'4 4.0
2015-Mar-23 11:32N 46°57' E 031°60'0 0.0
2015-Mar-23 10:32N 46°57' E 031°60'0 0.0
2015-Mar-23 09:32N 46°57' E 031°60'0 0.0
2015-Mar-23 08:32N 46°57' E 031°60'0 0.0
2015-Mar-23 07:32N 46°57' E 031°60'0 0.0
2015-Mar-23 06:32N 46°57' E 031°60'0 0.0
2015-Mar-23 05:26N 46°57' E 031°60'0 0.0
2015-Mar-23 04:32N 46°57' E 031°60'0 0.0
2015-Mar-23 03:32N 46°57' E 031°60'0 0.0
2015-Mar-23 02:32N 46°57' E 031°60'0 0.0
2015-Mar-23 01:32N 46°57' E 031°60'0 0.0
2015-Mar-23 00:32N 46°57' E 031°60'0 0.0
2015-Mar-22 23:32N 46°57' E 031°60'0 0.0
2015-Mar-22 22:32N 46°57' E 031°60'0 0.0
2015-Mar-22 21:31N 46°57' E 031°60'0 0.0
2015-Mar-22 20:33N 46°57' E 031°60'0 0.0
2015-Mar-22 19:33N 46°57' E 031°60'0 0.0
2015-Mar-22 18:33N 46°57' E 031°60'0 0.0
2015-Mar-22 17:33N 46°57' E 031°60'0 0.0
2015-Mar-22 16:32N 46°57' E 031°60'0 0.0
2015-Mar-22 15:32N 46°57' E 031°60'0 0.0
2015-Mar-22 14:32N 46°57' E 031°60'0 0.0
2015-Mar-22 13:32N 46°57' E 031°60'0 0.0
2015-Mar-22 12:32N 46°57' E 031°60'0 0.0
2015-Mar-22 11:31N 46°57' E 031°60'0 0.0
2015-Mar-22 10:31N 46°57' E 031°60'0 0.0
2015-Mar-22 09:31N 46°57' E 031°60'0 0.0
2015-Mar-22 08:33N 46°57' E 031°60'0 0.0
2015-Mar-22 07:33N 46°57' E 031°60'0 0.0
2015-Mar-22 06:32N 46°57' E 031°60'0 0.0
2015-Mar-22 05:32N 46°57' E 031°60'0 0.0
2015-Mar-22 04:32N 46°57' E 031°60'0 0.0
2015-Mar-22 03:32N 46°57' E 031°60'0 0.0
2015-Mar-22 02:29N 46°57' E 031°60'0 0.0
2015-Mar-22 01:31N 46°57' E 031°60'0 0.0
2015-Mar-22 00:31N 46°57' E 031°60'0 0.0
2015-Mar-21 23:32N 46°57' E 031°60'0 0.1
2015-Mar-21 22:33N 46°57' E 031°60'0 0.0
2015-Mar-21 21:32N 46°57' E 031°60'0 0.0
2015-Mar-21 20:31N 46°57' E 031°60'0 0.0
2015-Mar-21 19:31N 46°57' E 031°60'0 0.0
2015-Mar-21 18:31N 46°57' E 031°60'0 0.0
2015-Mar-21 17:31N 46°57' E 031°60'0 0.0
2015-Mar-21 16:31N 46°57' E 031°60'0 0.0
2015-Mar-21 15:31N 46°57' E 031°60'0 0.0
2015-Mar-21 14:33N 46°57' E 031°60'0 0.0
2015-Mar-21 13:33N 46°57' E 031°60'0 0.0
2015-Mar-21 12:30N 46°57' E 031°60'0 0.0
2015-Mar-21 11:33N 46°57' E 031°60'0 0.0
2015-Mar-21 10:33N 46°57' E 031°60'0 0.0
2015-Mar-21 09:32N 46°57' E 031°60'0 0.0
2015-Mar-21 08:31N 46°57' E 031°60'0 0.0
2015-Mar-21 07:31N 46°57' E 031°60'0 0.0
2015-Mar-21 06:31N 46°57' E 031°60'0 0.0
2015-Mar-21 05:31N 46°57' E 031°60'0 0.0
2015-Mar-21 04:31N 46°57' E 031°60'0 0.0
2015-Mar-21 03:25N 46°57' E 031°60'0 0.0
2015-Mar-21 02:31N 46°57' E 031°60'0 0.0
2015-Mar-21 01:31N 46°57' E 031°60'0 0.0
2015-Mar-21 00:33N 46°57' E 032°00'0 0.0
2015-Mar-20 23:33N 46°57' E 032°00'0 0.0
2015-Mar-20 22:33N 46°57' E 032°00'0 0.0
2015-Mar-20 21:33N 46°57' E 032°00'0 0.2
2015-Mar-20 20:33N 46°57' E 032°00'8 7.8
2015-Mar-20 19:33N 46°50' E 031°55'1010.5
2015-Mar-20 18:33N 46°39' E 031°56'1111.4
2015-Mar-20 17:33N 46°36' E 031°40'9 8.0
2015-Mar-20 16:27N 46°35' E 031°27'0 0.0
2015-Mar-20 15:16N 46°35' E 031°27'1 1.2
2015-Mar-20 14:33N 46°35' E 031°26'  
Track history (hours):
 
Tides and Currents Weather Stations Pressure Air Temp Water Temp Dewpoint Dewpoint Depression Visibility Wind Speed Wind Dir Waves Ship Positions

Palchem 1

Last reported at 2015-Mar-28 15:31 UTC. Time now 2015-Mar-30 20:02 UTC.
Position N 36°35' E 026°37'.

Length 143 m; draft 9.2 m.

Type: Ship (hazmat cat B). MMSI: 249955000.

Date/timePositionNaut miles runAvg speedWind from/ knotsBaromVisibWave heightAir tempDewpointWater temp
2015-Mar-28 15:31N 36°35' E 026°37'2411.8
2015-Mar-28 13:30N 36°53' E 026°17'3411.4
2015-Mar-28 10:33N 37°21' E 025°54'1110.8
2015-Mar-28 09:30N 37°32' E 025°49'1211.1
2015-Mar-28 08:24N 37°44' E 025°48'241 6.0
2015-Mar-26 16:32N 40°58' E 028°53'0 0.0
2015-Mar-26 15:32N 40°58' E 028°53'0 0.0
2015-Mar-26 14:32N 40°58' E 028°53'0 0.0
2015-Mar-26 13:14N 40°58' E 028°53'0 0.0
2015-Mar-26 09:22N 40°58' E 028°53'0 0.0
2015-Mar-26 08:04N 40°58' E 028°53'0 0.0
2015-Mar-26 07:28N 40°58' E 028°53'0 0.0
2015-Mar-26 06:28N 40°58' E 028°53'0 0.0
2015-Mar-26 05:14N 40°58' E 028°53'0 0.0
2015-Mar-26 04:29N 40°58' E 028°53'0 0.0
2015-Mar-26 03:30N 40°58' E 028°53'0 0.0
2015-Mar-26 02:33N 40°58' E 028°53'0 0.0
2015-Mar-26 01:28N 40°58' E 028°53'0 0.1
2015-Mar-26 00:32N 40°58' E 028°53'0 0.0
2015-Mar-25 23:26N 40°58' E 028°53'0 0.0
2015-Mar-25 22:14N 40°58' E 028°53'0 0.0
2015-Mar-25 21:33N 40°58' E 028°53'6 6.0
2015-Mar-25 20:32N 41°01' E 028°60'1411.1
2015-Mar-25 19:14N 41°14' E 029°08'4 5.5
2015-Mar-25 18:33N 41°17' E 029°05'5 4.4
2015-Mar-25 17:31N 41°17' E 028°59'0 0.0
2015-Mar-25 16:31N 41°17' E 028°59'0 0.0
2015-Mar-25 15:32N 41°17' E 028°59'0 0.0
2015-Mar-25 14:28N 41°17' E 028°59'0 0.0
2015-Mar-25 13:33N 41°17' E 028°59'9 7.0
2015-Mar-25 12:16N 41°26' E 028°59'1 0.8
2015-Mar-25 11:33N 41°26' E 028°59'1 0.7
2015-Mar-25 10:33N 41°27' E 028°58'1 0.7
2015-Mar-25 09:33N 41°27' E 028°58'1 0.8
2015-Mar-25 08:24N 41°28' E 028°57'0 0.5
2015-Mar-25 07:32N 41°28' E 028°56'3 2.6
2015-Mar-25 06:16N 41°29' E 029°01'327 8.4
2015-Mar-23 15:31N 46°35' E 031°38'10 9.9
2015-Mar-23 14:32N 46°37' E 031°52'8 8.1
2015-Mar-23 13:33N 46°45' E 031°54'9 8.9
2015-Mar-23 12:33N 46°53' E 031°59'4 4.0
2015-Mar-23 11:32N 46°57' E 031°60'0 0.0
2015-Mar-23 10:32N 46°57' E 031°60'0 0.0
2015-Mar-23 09:32N 46°57' E 031°60'0 0.0
2015-Mar-23 08:32N 46°57' E 031°60'0 0.0
2015-Mar-23 07:32N 46°57' E 031°60'0 0.0
2015-Mar-23 06:32N 46°57' E 031°60'0 0.0
2015-Mar-23 05:26N 46°57' E 031°60'0 0.0
2015-Mar-23 04:32N 46°57' E 031°60'0 0.0
2015-Mar-23 03:32N 46°57' E 031°60'0 0.0
2015-Mar-23 02:32N 46°57' E 031°60'0 0.0
2015-Mar-23 01:32N 46°57' E 031°60'0 0.0
2015-Mar-23 00:32N 46°57' E 031°60'0 0.0
2015-Mar-22 23:32N 46°57' E 031°60'0 0.0
2015-Mar-22 22:32N 46°57' E 031°60'0 0.0
2015-Mar-22 21:31N 46°57' E 031°60'0 0.0
2015-Mar-22 20:33N 46°57' E 031°60'0 0.0
2015-Mar-22 19:33N 46°57' E 031°60'0 0.0
2015-Mar-22 18:33N 46°57' E 031°60'0 0.0
2015-Mar-22 17:33N 46°57' E 031°60'0 0.0
2015-Mar-22 16:32N 46°57' E 031°60'0 0.0
2015-Mar-22 15:32N 46°57' E 031°60'0 0.0
2015-Mar-22 14:32N 46°57' E 031°60'0 0.0
2015-Mar-22 13:32N 46°57' E 031°60'0 0.0
2015-Mar-22 12:32N 46°57' E 031°60'0 0.0
2015-Mar-22 11:31N 46°57' E 031°60'0 0.0
2015-Mar-22 10:31N 46°57' E 031°60'0 0.0
2015-Mar-22 09:31N 46°57' E 031°60'0 0.0
2015-Mar-22 08:33N 46°57' E 031°60'0 0.0
2015-Mar-22 07:33N 46°57' E 031°60'0 0.0
2015-Mar-22 06:32N 46°57' E 031°60'0 0.0
2015-Mar-22 05:32N 46°57' E 031°60'0 0.0
2015-Mar-22 04:32N 46°57' E 031°60'0 0.0
2015-Mar-22 03:32N 46°57' E 031°60'0 0.0
2015-Mar-22 02:29N 46°57' E 031°60'0 0.0
2015-Mar-22 01:31N 46°57' E 031°60'0 0.0
2015-Mar-22 00:31N 46°57' E 031°60'0 0.0
2015-Mar-21 23:32N 46°57' E 031°60'0 0.1
2015-Mar-21 22:33N 46°57' E 031°60'0 0.0
2015-Mar-21 21:32N 46°57' E 031°60'0 0.0
2015-Mar-21 20:31N 46°57' E 031°60'0 0.0
2015-Mar-21 19:31N 46°57' E 031°60'0 0.0
2015-Mar-21 18:31N 46°57' E 031°60'0 0.0
2015-Mar-21 17:31N 46°57' E 031°60'0 0.0
2015-Mar-21 16:31N 46°57' E 031°60'0 0.0
2015-Mar-21 15:31N 46°57' E 031°60'0 0.0
2015-Mar-21 14:33N 46°57' E 031°60'0 0.0
2015-Mar-21 13:33N 46°57' E 031°60'0 0.0
2015-Mar-21 12:30N 46°57' E 031°60'0 0.0
2015-Mar-21 11:33N 46°57' E 031°60'0 0.0
2015-Mar-21 10:33N 46°57' E 031°60'0 0.0
2015-Mar-21 09:32N 46°57' E 031°60'0 0.0
2015-Mar-21 08:31N 46°57' E 031°60'0 0.0
2015-Mar-21 07:31N 46°57' E 031°60'0 0.0
2015-Mar-21 06:31N 46°57' E 031°60'0 0.0
2015-Mar-21 05:31N 46°57' E 031°60'0 0.0
2015-Mar-21 04:31N 46°57' E 031°60'0 0.0
2015-Mar-21 03:25N 46°57' E 031°60'0 0.0
2015-Mar-21 02:31N 46°57' E 031°60'0 0.0
2015-Mar-21 01:31N 46°57' E 031°60'0 0.0
2015-Mar-21 00:33N 46°57' E 032°00'0 0.0
2015-Mar-20 23:33N 46°57' E 032°00'0 0.0
2015-Mar-20 22:33N 46°57' E 032°00'0 0.0
2015-Mar-20 21:33N 46°57' E 032°00'0 0.2
2015-Mar-20 20:33N 46°57' E 032°00'8 7.8
2015-Mar-20 19:33N 46°50' E 031°55'1010.5
2015-Mar-20 18:33N 46°39' E 031°56'1111.4
2015-Mar-20 17:33N 46°36' E 031°40'9 8.0
2015-Mar-20 16:27N 46°35' E 031°27'0 0.0
2015-Mar-20 15:16N 46°35' E 031°27'1 1.2
2015-Mar-20 14:33N 46°35' E 031°26'  

Dump ship's entire track history